createdAt,value
2018-01-12T00:01:56.914Z,20.37
2018-01-12T00:04:25.687Z,21.17
2018-01-12T00:06:53.554Z,23.33
2018-01-12T00:09:21.453Z,21.60
2018-01-12T00:11:49.306Z,19.37
2018-01-12T00:14:17.437Z,22.37
2018-01-12T00:16:45.264Z,21.00
2018-01-12T00:19:13.119Z,21.60
2018-01-12T00:21:40.989Z,20.90
2018-01-12T00:24:08.927Z,23.57
2018-01-12T00:26:36.785Z,19.97
2018-01-12T00:29:04.855Z,19.90
2018-01-12T00:31:32.737Z,18.53
2018-01-12T00:34:00.752Z,20.60
2018-01-12T00:36:29.394Z,19.67
2018-01-12T00:38:57.324Z,20.07
2018-01-12T00:41:26.058Z,18.40
2018-01-12T00:43:54.135Z,21.20
2018-01-12T00:46:22.320Z,21.00
2018-01-12T00:48:50.383Z,25.87
2018-01-12T00:51:18.345Z,21.40
2018-01-12T00:53:46.449Z,21.33
2018-01-12T00:56:14.463Z,24.77
2018-01-12T00:58:42.460Z,22.07
2018-01-12T01:01:10.580Z,20.87
2018-01-12T01:03:38.388Z,22.80
2018-01-12T01:06:06.255Z,18.80
2018-01-12T01:08:34.211Z,22.43
2018-01-12T01:11:02.161Z,19.23
2018-01-12T01:13:30.998Z,21.60
2018-01-12T01:15:59.023Z,19.33
2018-01-12T01:18:27.014Z,20.17
2018-01-12T01:20:55.806Z,21.70
2018-01-12T01:23:23.844Z,21.13
2018-01-12T01:25:51.780Z,21.63
2018-01-12T01:28:19.779Z,21.60
2018-01-12T01:30:47.824Z,24.07
2018-01-12T01:33:16.589Z,24.37
2018-01-12T01:35:44.783Z,20.67
2018-01-12T01:38:12.668Z,22.10
2018-01-12T01:40:40.781Z,22.33
2018-01-12T01:43:09.428Z,20.37
2018-01-12T01:45:37.382Z,23.10
2018-01-12T01:48:05.353Z,21.33
2018-01-12T01:50:33.317Z,19.80
2018-01-12T01:53:01.233Z,20.57
2018-01-12T01:55:29.192Z,23.10
2018-01-12T01:57:57.210Z,22.83
2018-01-12T02:00:25.111Z,26.30
2018-01-12T02:02:53.038Z,21.53
2018-01-12T02:05:21.734Z,23.03
2018-01-12T02:07:49.640Z,20.13
2018-01-12T02:10:17.640Z,20.47
2018-01-12T02:12:45.719Z,22.20
2018-01-12T02:15:13.646Z,23.83
2018-01-12T02:17:41.647Z,20.30
2018-01-12T02:20:09.705Z,19.43
2018-01-12T02:22:37.640Z,21.20
2018-01-12T02:25:05.604Z,18.90
2018-01-12T02:27:33.494Z,19.73
2018-01-12T02:30:01.411Z,23.50
2018-01-12T02:32:30.040Z,17.53
2018-01-12T02:34:57.985Z,20.40
2018-01-12T02:37:26.652Z,19.67
2018-01-12T02:39:55.361Z,22.27
2018-01-12T02:42:23.449Z,21.10
2018-01-12T02:44:51.470Z,21.00
2018-01-12T02:47:20.013Z,21.33
2018-01-12T02:49:48.839Z,21.20
2018-01-12T02:52:17.021Z,22.40
2018-01-12T02:54:44.978Z,22.77
2018-01-12T02:57:14.387Z,20.63
2018-01-12T02:59:42.898Z,20.53
2018-01-12T03:02:11.690Z,19.60
2018-01-12T03:04:40.452Z,20.43
2018-01-12T03:07:08.499Z,17.40
2018-01-12T03:09:37.501Z,20.77
2018-01-12T03:12:06.594Z,18.90
2018-01-12T03:14:35.690Z,21.50
2018-01-12T03:17:04.116Z,21.33
2018-01-12T03:19:32.127Z,21.03
2018-01-12T03:22:00.289Z,19.60
2018-01-12T03:24:28.299Z,21.17
2018-01-12T03:26:56.322Z,25.27
2018-01-12T03:29:24.864Z,21.57
2018-01-12T03:31:52.792Z,18.23
2018-01-12T03:34:20.878Z,22.30
2018-01-12T03:36:49.727Z,21.67
2018-01-12T03:39:17.840Z,20.00
2018-01-12T03:41:46.073Z,20.93
2018-01-12T03:44:14.120Z,18.23
2018-01-12T03:46:42.156Z,21.30
2018-01-12T03:49:10.144Z,26.10
2018-01-12T03:51:38.096Z,20.70
2018-01-12T03:54:06.187Z,21.97
2018-01-12T03:56:34.185Z,25.23
2018-01-12T03:59:03.012Z,21.27
2018-01-12T04:01:30.985Z,26.17
2018-01-12T04:03:59.025Z,21.73
2018-01-12T04:06:27.399Z,23.23
2018-01-12T04:08:55.621Z,24.60
2018-01-12T04:11:24.339Z,28.90
2018-01-12T04:13:52.337Z,22.43
2018-01-12T04:16:21.005Z,23.17
2018-01-12T04:18:49.117Z,22.80
2018-01-12T04:21:17.961Z,25.33
2018-01-12T04:23:45.938Z,23.23
2018-01-12T04:26:15.764Z,22.87
2018-01-12T04:28:44.592Z,27.53
2018-01-12T04:31:12.803Z,22.70
2018-01-12T04:33:42.985Z,26.77
2018-01-12T04:36:12.208Z,22.87
2018-01-12T04:38:41.233Z,27.73
2018-01-12T04:41:09.183Z,21.80
2018-01-12T04:43:37.986Z,22.50
2018-01-12T04:46:06.690Z,23.07
2018-01-12T04:48:36.075Z,22.13
2018-01-12T04:51:04.238Z,21.40
2018-01-12T04:53:32.223Z,21.47
2018-01-12T04:56:00.198Z,21.53
2018-01-12T04:58:28.302Z,20.67
2018-01-12T05:00:56.513Z,24.73
2018-01-12T05:03:24.508Z,22.27
2018-01-12T05:05:52.517Z,22.07
2018-01-12T05:08:20.583Z,22.17
2018-01-12T05:10:48.562Z,22.33
2018-01-12T05:13:16.681Z,23.33
2018-01-12T05:15:44.675Z,22.40
2018-01-12T05:18:12.574Z,23.97
2018-01-12T05:20:40.533Z,22.37
2018-01-12T05:23:08.539Z,23.27
2018-01-12T05:25:37.396Z,24.43
2018-01-12T05:28:05.386Z,26.13
2018-01-12T05:30:33.448Z,20.80
2018-01-12T05:33:01.334Z,26.50
2018-01-12T05:35:29.986Z,24.97
2018-01-12T05:37:59.364Z,22.27
2018-01-12T05:40:27.288Z,24.53
2018-01-12T05:42:55.413Z,22.03
2018-01-12T05:45:24.084Z,21.40
2018-01-12T05:47:53.206Z,24.67
2018-01-12T05:50:21.553Z,23.10
2018-01-12T05:52:50.807Z,19.17
2018-01-12T05:55:18.822Z,20.73
2018-01-12T05:57:46.773Z,21.33
2018-01-12T06:00:15.500Z,23.93
2018-01-12T06:04:56.580Z,22.40
2018-01-12T06:07:25.376Z,22.17
2018-01-12T06:09:53.721Z,21.43
2018-01-12T06:12:21.711Z,21.07
2018-01-12T06:14:51.045Z,21.77
2018-01-12T06:17:19.087Z,21.67
2018-01-12T06:19:47.068Z,20.77
2018-01-12T06:22:16.209Z,23.87
2018-01-12T06:24:44.721Z,21.97
2018-01-12T06:27:13.526Z,21.90
2018-01-12T06:29:41.484Z,24.73
2018-01-12T06:32:10.236Z,24.10
2018-01-12T06:34:38.344Z,23.53
2018-01-12T06:37:06.363Z,27.27
2018-01-12T06:39:34.428Z,21.90
2018-01-12T06:42:02.564Z,24.30
2018-01-12T06:44:31.226Z,23.90
2018-01-12T06:46:59.225Z,23.97
2018-01-12T06:49:27.185Z,20.23
2018-01-12T06:51:56.171Z,20.77
2018-01-12T06:54:24.168Z,22.20
2018-01-12T06:56:53.613Z,21.40
2018-01-12T06:59:21.826Z,22.10
2018-01-12T07:01:50.792Z,22.40
2018-01-12T07:04:19.744Z,22.00
2018-01-12T07:06:48.102Z,25.63
2018-01-12T07:09:17.940Z,24.70
2018-01-12T07:11:47.283Z,20.93
2018-01-12T07:14:15.392Z,25.53
2018-01-12T07:16:43.305Z,27.43
2018-01-12T07:19:11.369Z,25.97
2018-01-12T07:22:51.771Z,32.67
2018-01-12T07:25:23.326Z,28.67
2018-01-12T07:27:51.361Z,36.77
2018-01-12T07:30:19.553Z,30.40
2018-01-12T07:32:47.516Z,35.70
2018-01-12T07:35:15.615Z,44.53
2018-01-12T07:37:44.009Z,46.70
2018-01-12T07:40:12.009Z,42.43
2018-01-12T07:42:39.961Z,56.30
2018-01-12T07:45:07.868Z,56.80
2018-01-12T07:47:35.906Z,65.00
2018-01-12T07:50:03.901Z,60.63
2018-01-12T07:52:32.046Z,44.80
2018-01-12T07:55:00.463Z,34.03
2018-01-12T07:57:29.406Z,35.77
2018-01-12T07:59:57.502Z,35.40
2018-01-12T08:03:30.587Z,39.10
2018-01-12T08:05:59.955Z,41.23
2018-01-12T08:08:28.726Z,42.30
2018-01-12T08:10:56.900Z,40.33
2018-01-12T08:13:25.040Z,35.20
2018-01-12T08:15:53.129Z,38.43
2018-01-12T08:18:21.193Z,40.73
2018-01-12T08:20:49.343Z,44.37
2018-01-12T08:23:17.551Z,44.23
2018-01-12T08:25:46.681Z,44.60
2018-01-12T08:28:14.967Z,42.60
2018-01-12T08:30:43.267Z,46.43
2018-01-12T08:33:12.772Z,46.03
2018-01-12T08:35:41.053Z,51.37
2018-01-12T08:38:14.115Z,55.63
2018-01-12T08:40:42.645Z,49.97
2018-01-12T08:43:14.601Z,54.60
2018-01-12T08:45:43.457Z,56.60
2018-01-12T08:48:11.652Z,69.37
2018-01-12T08:50:40.246Z,60.90
2018-01-12T08:53:08.598Z,63.60
2018-01-12T08:55:37.206Z,53.97
2018-01-12T08:58:06.054Z,50.17
2018-01-12T09:00:34.033Z,55.33
2018-01-12T09:03:02.127Z,57.67
2018-01-12T09:05:30.191Z,64.27
2018-01-12T09:07:58.299Z,68.17
2018-01-12T09:10:28.093Z,72.77
2018-01-12T09:12:57.627Z,65.67
2018-01-12T09:15:29.858Z,77.23
2018-01-12T09:18:00.537Z,77.93
2018-01-12T09:20:34.090Z,67.80
2018-01-12T09:23:11.190Z,63.00
2018-01-12T09:25:41.418Z,65.47
2018-01-12T09:28:11.933Z,60.73
2018-01-12T09:30:40.201Z,64.57
2018-01-12T09:33:08.620Z,65.50
2018-01-12T09:35:39.792Z,58.87
2018-01-12T09:38:24.786Z,74.43
2018-01-12T09:40:52.873Z,73.27
2018-01-12T09:43:20.923Z,65.23
2018-01-12T09:45:49.229Z,64.57
2018-01-12T09:48:26.368Z,70.33
2018-01-12T09:50:55.964Z,63.63
2018-01-12T09:53:24.062Z,56.90
2018-01-12T09:55:52.045Z,70.53
2018-01-12T09:58:20.012Z,71.60
2018-01-12T10:00:55.859Z,65.70
2018-01-12T10:03:23.908Z,67.03
2018-01-12T10:05:52.065Z,63.87
2018-01-12T10:08:25.734Z,70.17
2018-01-12T10:10:53.817Z,66.73
2018-01-12T10:13:22.652Z,68.20
2018-01-12T10:15:51.625Z,70.20
2018-01-12T10:18:30.245Z,63.63
2018-01-12T10:21:06.662Z,56.93
2018-01-12T10:23:35.890Z,65.27
2018-01-12T10:26:05.298Z,73.07
2018-01-12T10:28:42.780Z,62.93
2018-01-12T10:31:12.699Z,72.20
2018-01-12T10:33:49.948Z,63.07
2018-01-12T10:36:20.054Z,64.67
2018-01-12T10:38:52.650Z,65.20
2018-01-12T10:41:31.306Z,63.63
2018-01-12T10:43:59.948Z,65.93
2018-01-12T10:46:37.638Z,63.33
2018-01-12T10:49:09.460Z,60.80
2018-01-12T10:51:38.001Z,57.13
2018-01-12T10:54:06.115Z,63.20
2018-01-12T10:56:34.132Z,62.80
2018-01-12T10:59:02.317Z,60.47
2018-01-12T11:01:31.072Z,59.63
2018-01-12T11:03:59.760Z,56.50
2018-01-12T11:06:28.088Z,61.90
2018-01-12T11:08:57.355Z,56.30
2018-01-12T11:11:27.064Z,51.90
2018-01-12T11:13:56.734Z,56.23
2018-01-12T11:16:25.524Z,53.67
2018-01-12T11:18:54.637Z,54.47
2018-01-12T11:21:23.733Z,50.77
2018-01-12T11:23:53.501Z,50.33
2018-01-12T11:26:31.478Z,51.40
2018-01-12T11:29:00.332Z,53.87
2018-01-12T11:31:28.743Z,49.20
2018-01-12T11:33:57.003Z,53.00
2018-01-12T11:36:28.700Z,51.80
2018-01-12T11:38:57.518Z,50.10
2018-01-12T11:41:25.726Z,57.73
2018-01-12T11:43:54.402Z,54.20
2018-01-12T11:46:22.706Z,55.87
2018-01-12T11:48:50.733Z,55.83
2018-01-12T11:51:21.483Z,50.87
2018-01-12T11:53:50.031Z,52.90
2018-01-12T11:56:19.644Z,54.17
2018-01-12T11:58:57.439Z,53.90
2018-01-12T12:01:26.931Z,55.63
2018-01-12T12:03:56.586Z,50.13
2018-01-12T12:06:24.937Z,55.37
2018-01-12T12:08:54.314Z,47.63
2018-01-12T12:11:23.275Z,52.77
2018-01-12T12:13:52.000Z,48.73
2018-01-12T12:16:22.769Z,48.03
2018-01-12T12:18:51.417Z,46.83
2018-01-12T12:21:21.238Z,46.00
2018-01-12T12:23:49.942Z,56.73
2018-01-12T12:26:23.978Z,51.87
2018-01-12T12:28:52.118Z,54.23
2018-01-12T12:31:20.543Z,60.07
2018-01-12T12:33:48.836Z,57.97
2018-01-12T12:36:17.235Z,51.57
2018-01-12T12:38:46.798Z,51.83
2018-01-12T12:41:17.033Z,56.10
2018-01-12T12:43:46.257Z,59.13
2018-01-12T12:46:18.208Z,53.97
2018-01-12T12:48:46.253Z,54.20
2018-01-12T12:51:14.332Z,51.17
2018-01-12T12:53:42.385Z,50.77
2018-01-12T12:56:12.040Z,60.30
2018-01-12T12:58:40.153Z,43.93
2018-01-12T13:01:08.533Z,46.90
2018-01-12T13:03:36.801Z,38.87
2018-01-12T13:06:05.272Z,43.17
2018-01-12T13:08:34.312Z,43.57
2018-01-12T13:13:45.729Z,36.57
2018-01-12T13:16:24.289Z,34.70
2018-01-12T13:18:54.891Z,38.40
2018-01-12T13:21:37.819Z,34.37
2018-01-12T13:24:32.142Z,35.93
2018-01-12T13:27:01.640Z,36.40
2018-01-12T13:29:30.211Z,37.30
2018-01-12T13:32:01.121Z,33.77
2018-01-12T13:35:02.498Z,35.77
2018-01-12T13:37:34.486Z,35.20
2018-01-12T13:40:03.084Z,36.40
2018-01-12T13:42:31.370Z,38.63
2018-01-12T13:45:05.494Z,32.50
2018-01-12T13:47:34.450Z,32.60
2018-01-12T13:50:10.814Z,31.30
2018-01-12T13:52:41.430Z,38.07
2018-01-12T13:55:14.827Z,37.70
2018-01-12T13:57:46.439Z,45.50
2018-01-12T14:00:15.263Z,34.73
2018-01-12T14:02:46.808Z,34.87
2018-01-12T14:05:16.889Z,42.67
2018-01-12T14:07:48.661Z,56.83
2018-01-12T14:10:17.354Z,40.50
2018-01-12T14:13:04.169Z,33.33
2018-01-12T14:16:03.885Z,34.17
2018-01-12T14:18:37.750Z,32.53
2018-01-12T14:21:05.994Z,35.47
2018-01-12T14:23:36.878Z,34.03
2018-01-12T14:26:06.019Z,32.97
2018-01-12T14:31:22.416Z,33.70
2018-01-12T14:36:40.322Z,33.07
2018-01-12T14:39:54.972Z,32.87
2018-01-12T14:42:26.335Z,31.40
2018-01-12T14:44:55.542Z,32.03
2018-01-12T14:47:26.015Z,34.97
2018-01-12T14:49:54.266Z,31.60
2018-01-12T14:52:24.787Z,31.87
2018-01-12T14:55:29.282Z,32.23
2018-01-12T15:00:52.704Z,35.73
2018-01-12T15:03:25.330Z,32.80
2018-01-12T15:06:46.642Z,32.77
2018-01-12T15:09:15.961Z,31.30
2018-01-12T15:12:13.169Z,27.27
2018-01-12T15:18:13.132Z,30.07
2018-01-12T15:23:59.696Z,30.97
2018-01-12T15:26:27.832Z,30.87
2018-01-12T15:31:52.774Z,33.87
2018-01-12T15:34:25.074Z,31.47
2018-01-12T15:36:56.342Z,31.07
2018-01-12T15:39:28.901Z,34.43
2018-01-12T15:42:04.668Z,34.37
2018-01-12T15:44:42.614Z,32.33
2018-01-12T15:47:12.519Z,35.37
2018-01-12T15:49:40.937Z,32.60
2018-01-12T15:52:20.771Z,34.13
2018-01-12T15:54:50.248Z,33.37
2018-01-12T15:57:21.040Z,40.17
2018-01-12T15:59:50.885Z,38.73
2018-01-12T16:02:22.431Z,35.83
2018-01-12T16:04:58.101Z,37.33
2018-01-12T16:07:43.242Z,36.57
2018-01-12T16:10:12.769Z,37.57
2018-01-12T16:12:41.676Z,39.07
2018-01-12T16:15:16.351Z,38.67
2018-01-12T16:18:18.154Z,39.00
2018-01-12T16:20:47.927Z,39.60
2018-01-12T16:23:19.224Z,39.13
2018-01-12T16:25:48.242Z,41.77
2018-01-12T16:28:17.137Z,48.17
2018-01-12T16:30:45.470Z,40.60
2018-01-12T16:33:14.946Z,43.37
2018-01-12T16:35:43.746Z,43.80
2018-01-12T16:38:15.582Z,38.83
2018-01-12T16:41:31.644Z,39.63
2018-01-12T16:44:03.963Z,39.43
2018-01-12T16:50:06.880Z,40.37
2018-01-12T16:55:28.353Z,42.70
2018-01-12T16:57:58.561Z,47.93
2018-01-12T17:00:35.768Z,44.10
2018-01-12T17:03:05.008Z,45.47
2018-01-12T17:05:37.144Z,40.87
2018-01-12T17:08:06.651Z,44.47
2018-01-12T17:10:36.662Z,42.13
2018-01-12T17:13:18.575Z,40.70
2018-01-12T17:15:59.363Z,41.30
2018-01-12T17:18:28.536Z,41.37
2018-01-12T17:24:29.265Z,39.73
2018-01-12T17:27:02.575Z,40.63
2018-01-12T17:29:32.690Z,41.47
2018-01-12T17:32:02.566Z,40.17
2018-01-12T17:34:40.200Z,41.60
2018-01-12T17:37:11.237Z,46.03
2018-01-12T17:40:00.922Z,43.93
2018-01-12T17:42:30.679Z,38.43
2018-01-12T17:45:02.371Z,38.73
2018-01-12T17:47:31.574Z,38.00
2018-01-12T17:50:00.911Z,40.43
2018-01-12T17:52:29.244Z,43.10
2018-01-12T17:54:57.471Z,39.40
2018-01-12T17:57:25.691Z,41.87
2018-01-12T17:59:54.815Z,43.20
2018-01-12T18:02:25.102Z,45.37
2018-01-12T18:05:04.464Z,39.00
2018-01-12T18:07:34.998Z,41.97
2018-01-12T18:10:04.906Z,42.53
2018-01-12T18:12:37.412Z,39.77
2018-01-12T18:15:08.214Z,44.03
2018-01-12T18:17:37.483Z,42.43
2018-01-12T18:20:06.016Z,45.77
2018-01-12T18:22:34.021Z,48.30
2018-01-12T18:25:02.393Z,45.83
2018-01-12T18:27:30.537Z,53.07
2018-01-12T18:33:09.740Z,56.03
2018-01-12T18:35:40.703Z,63.30
2018-01-12T18:38:09.803Z,70.37
2018-01-12T18:40:38.017Z,61.10
2018-01-12T18:43:07.344Z,41.10
2018-01-12T18:45:35.749Z,39.97
2018-01-12T18:48:05.606Z,53.43
2018-01-12T18:50:33.948Z,41.63
2018-01-12T18:53:02.255Z,42.77
2018-01-12T18:55:34.834Z,95.73
2018-01-12T18:58:06.708Z,82.60
2018-01-12T19:00:37.374Z,88.70
2018-01-12T19:03:13.555Z,51.33
2018-01-12T19:05:43.479Z,40.53
2018-01-12T19:08:14.837Z,39.07
2018-01-12T19:10:43.231Z,45.10
2018-01-12T19:13:19.594Z,41.47
2018-01-12T19:15:50.584Z,48.27
2018-01-12T19:18:18.668Z,42.87
2018-01-12T19:20:46.814Z,46.90
2018-01-12T19:23:24.322Z,42.07
2018-01-12T19:25:58.196Z,40.67
2018-01-12T19:28:36.307Z,46.50
2018-01-12T19:31:10.750Z,54.33
2018-01-12T19:33:46.286Z,76.93
2018-01-12T19:39:32.719Z,46.03
2018-01-12T19:42:01.609Z,54.37
2018-01-12T19:44:31.153Z,52.37
2018-01-12T19:46:59.232Z,45.17
2018-01-12T19:49:28.089Z,54.47
2018-01-12T19:52:05.391Z,60.53
2018-01-12T19:54:38.562Z,53.07
2018-01-12T19:57:13.573Z,46.37
2018-01-12T19:59:45.655Z,53.47
2018-01-12T20:05:15.679Z,62.00
2018-01-12T20:07:49.868Z,49.77
2018-01-12T20:10:28.651Z,50.40
2018-01-12T20:12:57.243Z,43.97
2018-01-12T20:16:23.752Z,43.13
2018-01-12T20:18:54.523Z,42.50
2018-01-12T20:21:23.835Z,44.43
2018-01-12T20:23:52.981Z,42.47
2018-01-12T20:26:22.882Z,42.37
2018-01-12T20:28:52.853Z,39.20
2018-01-12T20:31:22.129Z,45.20
2018-01-12T20:33:51.495Z,41.43
2018-01-12T20:36:20.323Z,42.30
2018-01-12T20:38:50.210Z,43.53
2018-01-12T20:41:20.491Z,43.33
2018-01-12T20:43:50.346Z,43.40
2018-01-12T20:46:19.970Z,45.33
2018-01-12T20:48:50.336Z,45.83
2018-01-12T20:51:29.812Z,45.40
2018-01-12T20:53:59.624Z,42.33
2018-01-12T20:56:31.595Z,49.30
2018-01-12T20:59:02.275Z,40.87
2018-01-12T21:01:32.460Z,44.07
2018-01-12T21:04:04.286Z,46.53
2018-01-12T21:06:39.452Z,45.53
2018-01-12T21:09:09.007Z,45.97
2018-01-12T21:11:42.025Z,48.33
2018-01-12T21:14:10.884Z,44.90
2018-01-12T21:16:43.034Z,42.87
2018-01-12T21:19:12.931Z,40.87
2018-01-12T21:21:43.892Z,44.73
2018-01-12T21:24:17.227Z,43.67
2018-01-12T21:26:49.470Z,44.23
2018-01-12T21:29:25.735Z,45.87
2018-01-12T21:31:56.975Z,43.77
2018-01-12T21:34:31.322Z,48.83
2018-01-12T21:37:03.612Z,43.80
2018-01-12T21:39:34.940Z,41.70
2018-01-12T21:42:16.123Z,46.13
2018-01-12T21:44:49.386Z,49.20
2018-01-12T21:47:18.395Z,44.63
2018-01-12T21:49:52.723Z,47.63
2018-01-12T21:52:23.141Z,42.77
2018-01-12T21:54:56.968Z,44.67
2018-01-12T21:57:33.236Z,41.70
2018-01-12T22:00:01.766Z,44.07
2018-01-12T22:02:29.998Z,42.97
2018-01-12T22:05:26.007Z,50.40
2018-01-12T22:18:00.078Z,47.33
2018-01-12T22:20:29.320Z,50.03
2018-01-12T22:22:57.289Z,52.33
2018-01-12T22:25:25.688Z,51.20
2018-01-12T22:27:54.397Z,51.53
2018-01-12T22:30:26.549Z,55.20
2018-01-12T22:32:54.604Z,53.30
2018-01-12T22:35:25.360Z,53.30
2018-01-12T22:37:53.816Z,52.80
2018-01-12T22:40:24.788Z,53.60
2018-01-12T22:42:53.139Z,54.03
2018-01-12T22:45:21.113Z,52.60
2018-01-12T22:47:49.746Z,55.53
2018-01-12T22:50:18.102Z,55.50
2018-01-12T22:52:46.325Z,58.30
2018-01-12T22:55:14.476Z,57.43
2018-01-12T22:57:42.445Z,55.83
2018-01-12T23:00:14.635Z,57.57
2018-01-12T23:02:42.865Z,54.60
2018-01-12T23:05:10.926Z,53.93
2018-01-12T23:08:06.005Z,50.33
2018-01-12T23:10:36.032Z,56.07
2018-01-12T23:13:03.999Z,58.30
2018-01-12T23:15:32.171Z,45.80
2018-01-12T23:18:00.229Z,54.33
2018-01-12T23:20:29.055Z,50.97
2018-01-12T23:22:57.046Z,54.80
2018-01-12T23:25:24.986Z,50.13
2018-01-12T23:27:53.170Z,51.33
2018-01-12T23:30:21.308Z,54.70
2018-01-12T23:32:49.457Z,48.73
2018-01-12T23:35:17.972Z,42.93
2018-01-12T23:37:46.653Z,42.13
2018-01-12T23:40:54.242Z,42.43
2018-01-12T23:43:23.255Z,46.83
2018-01-12T23:45:51.331Z,50.80
2018-01-12T23:48:19.361Z,51.03
2018-01-12T23:50:47.771Z,48.03
2018-01-12T23:53:15.976Z,49.17
2018-01-12T23:55:48.006Z,51.63
2018-01-12T23:58:16.236Z,44.90
